Time;durP1;ratioP1;P1;durP2;ratioP2;P2;SDS_P1;SDS_P2;PMS_P1;PMS_P2;Temp;Humidity;BMP_temperature;BMP_pressure;BME280_temperature;BME280_humidity;BME280_pressure;Samples;Min_cycle;Max_cycle;Signal;HPM_P1;HPM_P2
2022/09/24 00:01:39;;;;;;;2.85;2.65;;;14.70;99.90;;;;;;5041186;28;20202;-73
2022/09/24 00:04:10;;;;;;;3.40;3.20;;;14.70;99.90;;;;;;5039937;28;20227;-75
2022/09/24 00:06:40;;;;;;;4.60;3.88;;;14.70;99.90;;;;;;5049040;28;20206;-75
2022/09/24 00:09:08;;;;;;;3.13;2.92;;;14.70;99.90;;;;;;5046031;28;20666;-75
2022/09/24 00:11:35;;;;;;;3.40;3.15;;;14.80;99.90;;;;;;5042245;28;20709;-75
2022/09/24 00:14:05;;;;;;;2.30;2.20;;;14.80;99.90;;;;;;5042483;28;20273;-75
2022/09/24 00:16:34;;;;;;;2.40;2.25;;;14.80;99.90;;;;;;5048145;28;20210;-75
2022/09/24 00:19:02;;;;;;;2.60;2.40;;;14.80;99.90;;;;;;5045636;28;20222;-75
2022/09/24 00:21:31;;;;;;;2.50;2.30;;;14.80;99.90;;;;;;5041241;28;20242;-75
2022/09/24 00:24:01;;;;;;;3.35;2.63;;;14.80;99.90;;;;;;5039453;28;20932;-75
2022/09/24 00:29:17;;;;;;;2.78;2.22;;;14.80;99.90;;;;;;5045773;28;20225;-75
2022/09/24 00:31:44;;;;;;;2.22;2.13;;;14.70;99.90;;;;;;5042569;28;20206;-75
2022/09/24 00:34:11;;;;;;;3.72;1.95;;;14.70;99.90;;;;;;5042814;28;20587;-75
2022/09/24 00:36:38;;;;;;;2.40;2.20;;;14.60;99.90;;;;;;5037307;28;20200;-75
2022/09/24 00:39:07;;;;;;;2.17;2.08;;;14.60;99.90;;;;;;5038923;28;20219;-75
2022/09/24 00:41:36;;;;;;;2.90;2.28;;;14.50;99.90;;;;;;5044849;28;20208;-75
2022/09/24 00:44:37;;;;;;;2.97;2.40;;;14.40;99.90;;;;;;5042471;28;20234;-75
2022/09/24 00:47:06;;;;;;;2.20;2.10;;;14.30;99.90;;;;;;5048439;28;20206;-75
2022/09/24 00:49:33;;;;;;;2.47;2.28;;;14.20;99.90;;;;;;5040685;28;20265;-74
2022/09/24 00:52:01;;;;;;;2.92;2.33;;;14.10;99.90;;;;;;5044076;28;20212;-74
2022/09/24 00:54:29;;;;;;;2.42;2.30;;;14.10;99.90;;;;;;5044520;28;20687;-74
2022/09/24 00:57:01;;;;;;;2.30;2.20;;;14.10;99.90;;;;;;5039376;28;20191;-74
2022/09/24 00:59:29;;;;;;;2.25;2.05;;;14.10;99.90;;;;;;5047872;28;20246;-74
2022/09/24 01:01:57;;;;;;;2.63;2.42;;;14.10;99.90;;;;;;5048902;28;20260;-74
2022/09/24 01:04:28;;;;;;;2.60;2.40;;;14.10;99.90;;;;;;5047519;28;20713;-74
2022/09/24 01:06:56;;;;;;;2.67;2.47;;;14.10;99.90;;;;;;5046289;28;20306;-74
2022/09/24 01:09:26;;;;;;;2.17;2.08;;;14.00;99.90;;;;;;5044759;28;20297;-74
2022/09/24 01:12:00;;;;;;;2.47;2.28;;;14.10;99.90;;;;;;5046669;28;20207;-74
2022/09/24 01:14:49;;;;;;;3.28;2.97;;;14.10;99.90;;;;;;5047605;28;20206;-74
2022/09/24 01:17:25;;;;;;;2.65;2.42;;;14.00;99.90;;;;;;5044338;28;20203;-74
2022/09/24 01:20:22;;;;;;;2.42;2.22;;;14.00;99.90;;;;;;5042760;28;20263;-74
2022/09/24 01:23:08;;;;;;;2.35;2.15;;;14.00;99.90;;;;;;5040336;28;20556;-77
2022/09/24 01:25:44;;;;;;;2.28;2.15;;;14.10;99.90;;;;;;5027900;28;20211;-76
2022/09/24 01:28:29;;;;;;;2.53;2.33;;;14.10;99.90;;;;;;5046942;28;20249;-75
2022/09/24 01:31:03;;;;;;;3.00;2.72;;;14.20;99.90;;;;;;5040138;28;20195;-75
2022/09/24 01:33:34;;;;;;;2.92;2.60;;;14.10;99.90;;;;;;5042476;28;20214;-75
2022/09/24 01:36:07;;;;;;;2.28;2.17;;;14.10;99.90;;;;;;5045389;28;20199;-75
2022/09/24 01:38:39;;;;;;;2.28;2.17;;;14.10;99.90;;;;;;5037434;28;20234;-75
2022/09/24 01:41:09;;;;;;;2.85;2.65;;;14.10;99.90;;;;;;5046004;28;20202;-75
2022/09/24 01:43:38;;;;;;;2.40;2.30;;;14.20;99.90;;;;;;5044557;28;20276;-75
2022/09/24 01:46:07;;;;;;;2.33;2.15;;;14.20;99.90;;;;;;5048953;28;20210;-75
2022/09/24 01:48:37;;;;;;;2.97;2.70;;;14.10;99.90;;;;;;5044866;28;20223;-75
2022/09/24 01:51:10;;;;;;;2.63;2.47;;;14.00;99.90;;;;;;5040758;28;20662;-75
2022/09/24 01:53:43;;;;;;;2.72;2.53;;;13.90;99.90;;;;;;5042613;28;20226;-75
2022/09/24 01:56:15;;;;;;;3.20;2.40;;;13.90;99.90;;;;;;5025740;28;20195;-75
2022/09/24 01:58:49;;;;;;;2.17;2.05;;;13.90;99.90;;;;;;5040217;28;20235;-76
2022/09/24 02:01:24;;;;;;;2.40;2.30;;;13.80;99.90;;;;;;5037786;28;20208;-76
2022/09/24 02:03:57;;;;;;;2.22;2.13;;;13.70;99.90;;;;;;5042477;28;20824;-76
2022/09/24 02:06:31;;;;;;;2.47;2.28;;;13.70;99.90;;;;;;5045053;28;20218;-76
2022/09/24 02:08:59;;;;;;;2.40;2.20;;;13.80;99.90;;;;;;5043503;28;20218;-76
2022/09/24 02:11:27;;;;;;;2.42;2.30;;;13.80;99.90;;;;;;5040273;28;20209;-76
2022/09/24 02:13:59;;;;;;;2.22;2.13;;;13.90;99.90;;;;;;5041407;28;20223;-75
2022/09/24 02:16:32;;;;;;;2.78;2.58;;;14.00;99.90;;;;;;5043537;28;20203;-76
2022/09/24 02:19:05;;;;;;;2.65;2.47;;;14.00;99.90;;;;;;5043924;28;20231;-76
2022/09/24 02:21:36;;;;;;;2.33;2.13;;;14.00;99.90;;;;;;5055231;28;20210;-76
2022/09/24 02:24:07;;;;;;;4.20;2.53;;;14.00;99.90;;;;;;5047250;28;20235;-76
2022/09/24 02:26:35;;;;;;;2.92;2.17;;;14.00;99.90;;;;;;5037831;28;20211;-76
2022/09/24 02:29:02;;;;;;;2.30;2.10;;;14.00;99.90;;;;;;5041210;28;20699;-75
2022/09/24 02:31:35;;;;;;;2.45;2.25;;;14.00;99.90;;;;;;5045064;28;20218;-76
2022/09/24 02:34:22;;;;;;;2.60;2.40;;;13.90;99.90;;;;;;5038228;28;20242;-76
2022/09/24 02:36:52;;;;;;;2.70;2.50;;;14.00;99.90;;;;;;5043440;28;20191;-74
2022/09/24 02:39:20;;;;;;;2.53;2.35;;;13.90;99.90;;;;;;5039765;28;20219;-74
2022/09/24 02:41:49;;;;;;;2.40;2.20;;;13.80;99.90;;;;;;5042056;28;20694;-74
2022/09/24 02:44:18;;;;;;;2.30;2.20;;;13.80;99.90;;;;;;5046322;28;20639;-74
2022/09/24 02:46:49;;;;;;;2.40;2.20;;;13.80;99.90;;;;;;5050358;28;20630;-74
2022/09/24 02:49:16;;;;;;;2.45;2.28;;;13.80;99.90;;;;;;5046082;28;20227;-74
2022/09/24 02:51:44;;;;;;;3.13;2.90;;;13.80;99.90;;;;;;5048864;28;20252;-74
2022/09/24 02:54:12;;;;;;;2.80;2.60;;;13.80;99.90;;;;;;5040471;28;20265;-74
2022/09/24 02:56:39;;;;;;;3.70;3.10;;;13.80;99.90;;;;;;5026746;28;20645;-74
2022/09/24 02:59:07;;;;;;;2.55;2.45;;;13.70;99.90;;;;;;5038963;28;20230;-74
2022/09/24 03:01:35;;;;;;;2.40;2.20;;;13.70;99.90;;;;;;5050574;28;20214;-74
2022/09/24 03:04:05;;;;;;;2.88;2.67;;;13.70;99.90;;;;;;5048051;28;20622;-74
2022/09/24 03:06:32;;;;;;;2.63;2.53;;;13.80;99.90;;;;;;5038695;28;20273;-73
2022/09/24 03:08:59;;;;;;;2.90;2.70;;;13.80;99.90;;;;;;5042873;28;20223;-73
2022/09/24 03:11:27;;;;;;;2.65;2.45;;;13.70;99.90;;;;;;5047302;28;20202;-74
2022/09/24 03:13:54;;;;;;;2.50;2.30;;;13.70;99.90;;;;;;5049159;28;20222;-73
2022/09/24 03:16:22;;;;;;;2.80;2.60;;;13.70;99.90;;;;;;5047853;28;20225;-73
2022/09/24 03:18:49;;;;;;;4.78;3.17;;;13.70;99.90;;;;;;5042278;28;20268;-73
2022/09/24 03:21:19;;;;;;;2.80;2.60;;;13.70;99.90;;;;;;5044854;28;20200;-73
2022/09/24 03:23:47;;;;;;;3.90;3.60;;;13.70;99.90;;;;;;5042413;28;20211;-73
2022/09/24 03:26:16;;;;;;;2.70;2.50;;;13.70;99.90;;;;;;5044794;28;20246;-73
2022/09/24 03:28:43;;;;;;;2.70;2.50;;;13.70;99.90;;;;;;5041423;28;20223;-72
2022/09/24 03:31:10;;;;;;;2.67;2.47;;;13.80;99.90;;;;;;5046885;28;20199;-72
2022/09/24 03:33:38;;;;;;;3.05;2.85;;;13.80;99.90;;;;;;5044926;28;20270;-73
2022/09/24 03:36:08;;;;;;;2.70;2.50;;;13.80;99.90;;;;;;5045483;28;20199;-73
2022/09/24 03:38:38;;;;;;;2.95;2.72;;;13.80;99.90;;;;;;5042458;28;20223;-73
2022/09/24 03:41:07;;;;;;;2.88;2.67;;;13.80;99.90;;;;;;5049696;28;20709;-73
2022/09/24 03:43:34;;;;;;;2.78;2.58;;;13.80;99.90;;;;;;5040521;28;20234;-73
2022/09/24 03:46:02;;;;;;;3.00;2.80;;;13.70;99.90;;;;;;5046277;28;20608;-73
2022/09/24 03:48:30;;;;;;;2.80;2.60;;;13.70;99.90;;;;;;5044817;28;20222;-73
2022/09/24 03:50:57;;;;;;;3.03;2.83;;;13.70;99.90;;;;;;5043250;28;20191;-73
2022/09/24 03:53:24;;;;;;;2.53;2.20;;;13.70;99.90;;;;;;5046183;28;20281;-73
2022/09/24 03:55:56;;;;;;;2.53;2.33;;;13.70;99.90;;;;;;5043063;28;20553;-73
2022/09/24 03:58:24;;;;;;;2.45;2.25;;;13.80;99.90;;;;;;5046522;28;20227;-72
2022/09/24 04:00:52;;;;;;;2.50;2.40;;;13.80;99.90;;;;;;5047511;28;20640;-72
2022/09/24 04:03:20;;;;;;;3.30;3.10;;;13.90;99.90;;;;;;5026009;28;20233;-73
2022/09/24 04:05:47;;;;;;;3.08;2.88;;;13.80;99.90;;;;;;5042798;28;20219;-72
2022/09/24 04:08:14;;;;;;;3.15;2.92;;;13.90;99.90;;;;;;5043685;28;20348;-73
2022/09/24 04:10:42;;;;;;;2.60;2.40;;;13.90;99.90;;;;;;5048856;28;20199;-73
2022/09/24 04:13:10;;;;;;;2.17;2.08;;;13.90;99.90;;;;;;5040073;28;20227;-72
2022/09/24 04:15:37;;;;;;;2.30;2.20;;;13.90;99.90;;;;;;5048784;28;20198;-72
2022/09/24 04:18:05;;;;;;;2.67;2.47;;;13.90;99.90;;;;;;5041302;28;20242;-72
2022/09/24 04:20:33;;;;;;;2.72;2.53;;;13.90;99.90;;;;;;5044262;28;20195;-72
2022/09/24 04:23:01;;;;;;;2.47;2.28;;;13.90;99.90;;;;;;5044775;28;20233;-73
2022/09/24 04:25:31;;;;;;;3.17;2.97;;;13.90;99.90;;;;;;5041089;28;20222;-72
2022/09/24 04:28:00;;;;;;;3.05;2.85;;;13.90;99.90;;;;;;5045199;28;20223;-73
2022/09/24 04:30:30;;;;;;;2.40;2.20;;;13.90;99.90;;;;;;5043880;28;20199;-72
2022/09/24 04:32:59;;;;;;;3.28;3.08;;;13.90;99.90;;;;;;5046175;28;20209;-73
2022/09/24 04:35:29;;;;;;;3.95;3.65;;;13.90;99.90;;;;;;5045005;28;20769;-72
2022/09/24 04:37:56;;;;;;;2.97;2.78;;;13.90;99.90;;;;;;5039044;28;20586;-73
2022/09/24 04:40:23;;;;;;;2.80;2.60;;;13.90;99.90;;;;;;5038720;28;20196;-73
2022/09/24 04:42:51;;;;;;;2.60;2.40;;;13.90;99.90;;;;;;5041499;28;20757;-72
2022/09/24 04:45:19;;;;;;;3.25;2.95;;;13.90;99.90;;;;;;5047800;28;20220;-72
2022/09/24 04:47:51;;;;;;;4.30;2.63;;;13.90;99.90;;;;;;5041845;28;20822;-73
2022/09/24 04:50:19;;;;;;;2.60;2.40;;;13.90;99.90;;;;;;5043984;28;20274;-73
2022/09/24 04:52:46;;;;;;;2.58;2.38;;;13.90;99.90;;;;;;5042040;28;20245;-74
2022/09/24 04:55:14;;;;;;;2.67;2.47;;;13.90;99.90;;;;;;5043591;28;20202;-73
2022/09/24 04:57:41;;;;;;;2.90;2.70;;;13.90;99.90;;;;;;5042775;28;20249;-74
2022/09/24 05:00:14;;;;;;;2.72;2.53;;;13.90;99.90;;;;;;5035436;28;20257;-73
2022/09/24 05:02:41;;;;;;;3.55;3.25;;;13.90;99.90;;;;;;5046023;28;20199;-73
2022/09/24 05:05:11;;;;;;;3.22;3.03;;;13.90;99.90;;;;;;5074197;22;20715;-77
2022/09/24 05:07:38;;;;;;;3.03;2.72;;;13.90;99.90;;;;;;5050956;28;20286;-78
2022/09/24 05:10:06;;;;;;;3.13;2.92;;;13.80;99.90;;;;;;5054442;28;20693;-75
2022/09/24 05:12:34;;;;;;;3.15;2.85;;;13.70;99.90;;;;;;5054949;28;20198;-77
2022/09/24 05:15:02;;;;;;;2.40;2.30;;;13.60;99.90;;;;;;5050155;28;20318;-77
2022/09/24 05:17:30;;;;;;;3.20;2.90;;;13.60;99.90;;;;;;5065046;22;20297;-75
2022/09/24 05:19:58;;;;;;;3.38;2.70;;;13.60;99.90;;;;;;5042610;28;20258;-74
2022/09/24 05:22:27;;;;;;;3.45;2.58;;;13.50;99.90;;;;;;5042156;28;20282;-75
2022/09/24 05:24:55;;;;;;;2.70;2.50;;;13.60;99.90;;;;;;5042158;28;20336;-74
2022/09/24 05:27:22;;;;;;;2.80;2.47;;;13.50;99.90;;;;;;5044625;28;20268;-76
2022/09/24 05:29:49;;;;;;;2.78;2.58;;;13.60;99.90;;;;;;5051600;28;20215;-73
2022/09/24 05:32:18;;;;;;;2.67;2.45;;;13.50;99.90;;;;;;5045241;28;20199;-73
2022/09/24 05:34:46;;;;;;;2.53;2.33;;;13.60;99.90;;;;;;5045871;28;20230;-73
2022/09/24 05:37:17;;;;;;;2.50;2.30;;;13.50;99.90;;;;;;5043003;28;20245;-72
2022/09/24 05:39:45;;;;;;;3.22;3.03;;;13.50;99.90;;;;;;5046319;28;20227;-74
2022/09/24 05:42:13;;;;;;;3.45;2.95;;;13.60;99.90;;;;;;5044028;28;20199;-75
2022/09/24 05:44:42;;;;;;;2.63;2.42;;;13.60;99.90;;;;;;5042860;28;20218;-74
2022/09/24 05:47:09;;;;;;;2.63;2.42;;;13.60;99.90;;;;;;5045219;28;20229;-75
2022/09/24 05:49:38;;;;;;;2.70;2.50;;;13.60;99.90;;;;;;5046256;28;20214;-78
2022/09/24 05:52:05;;;;;;;2.70;2.50;;;13.60;99.90;;;;;;5040659;28;20191;-76
2022/09/24 05:54:32;;;;;;;2.90;2.70;;;13.60;99.90;;;;;;5043396;28;20642;-76
2022/09/24 05:57:01;;;;;;;3.28;2.75;;;13.70;99.90;;;;;;5043514;28;20213;-77
2022/09/24 05:59:28;;;;;;;2.53;2.38;;;13.70;99.90;;;;;;5044625;28;20794;-77
2022/09/24 06:01:55;;;;;;;2.83;2.63;;;13.70;99.90;;;;;;5041900;28;20203;-76
2022/09/24 06:04:23;;;;;;;2.42;2.30;;;13.70;99.90;;;;;;5042700;28;20781;-77
2022/09/24 06:06:51;;;;;;;3.10;2.90;;;13.70;99.90;;;;;;5040256;28;20222;-76
2022/09/24 06:09:18;;;;;;;2.72;2.53;;;13.80;99.90;;;;;;5044759;28;20211;-77
2022/09/24 06:11:47;;;;;;;2.80;2.60;;;13.80;99.90;;;;;;5043686;28;20195;-77
2022/09/24 06:14:16;;;;;;;2.50;2.30;;;13.80;99.90;;;;;;5044708;28;20238;-76
2022/09/24 06:16:44;;;;;;;2.67;2.47;;;13.80;99.90;;;;;;5046410;28;20652;-76
2022/09/24 06:19:11;;;;;;;2.60;2.40;;;13.80;99.90;;;;;;5045730;28;20223;-76
2022/09/24 06:21:38;;;;;;;2.47;2.30;;;13.90;99.90;;;;;;5038011;28;20206;-76
2022/09/24 06:24:06;;;;;;;2.50;2.30;;;13.90;99.90;;;;;;5044934;28;20277;-76
2022/09/24 06:26:33;;;;;;;2.78;2.58;;;13.90;99.90;;;;;;5046825;28;20215;-78
2022/09/24 06:29:00;;;;;;;2.65;2.45;;;14.00;99.90;;;;;;5043615;28;20243;-76
2022/09/24 06:31:30;;;;;;;3.30;2.78;;;14.00;99.90;;;;;;5046968;28;20195;-77
2022/09/24 06:33:57;;;;;;;3.10;2.80;;;14.00;99.90;;;;;;5039270;28;20704;-78
2022/09/24 06:36:24;;;;;;;2.80;2.60;;;14.00;99.90;;;;;;5046744;28;20194;-76
2022/09/24 06:38:52;;;;;;;2.97;2.75;;;14.10;99.90;;;;;;5046042;28;20704;-76
2022/09/24 06:41:20;;;;;;;2.70;2.50;;;14.10;99.90;;;;;;5045345;28;20199;-76
2022/09/24 06:43:47;;;;;;;2.83;2.60;;;14.10;99.90;;;;;;5044345;28;20215;-75
2022/09/24 06:46:15;;;;;;;2.70;2.50;;;14.20;99.90;;;;;;5043388;28;20215;-76
2022/09/24 06:48:44;;;;;;;2.60;2.40;;;14.20;99.90;;;;;;5027017;28;20219;-75
2022/09/24 06:51:11;;;;;;;2.95;2.50;;;14.30;99.90;;;;;;5041561;28;20194;-75
2022/09/24 06:53:38;;;;;;;3.58;3.28;;;14.30;99.90;;;;;;5042105;28;20223;-76
2022/09/24 06:56:06;;;;;;;3.85;3.05;;;14.40;99.90;;;;;;5038679;28;20242;-75
2022/09/24 06:58:34;;;;;;;3.20;3.00;;;14.40;99.90;;;;;;5042325;28;20218;-75
2022/09/24 07:01:02;;;;;;;3.88;3.58;;;14.30;99.90;;;;;;5044070;28;20576;-76
2022/09/24 07:03:33;;;;;;;3.70;3.40;;;14.30;99.90;;;;;;5044403;28;20231;-76
2022/09/24 07:06:04;;;;;;;3.38;3.08;;;14.20;99.90;;;;;;5044906;28;20288;-75
2022/09/24 07:08:32;;;;;;;4.75;3.08;;;14.30;99.90;;;;;;5040806;28;20223;-75
2022/09/24 07:11:01;;;;;;;3.30;3.00;;;14.30;99.90;;;;;;5042535;28;20203;-75
2022/09/24 07:13:28;;;;;;;3.13;2.92;;;14.40;99.90;;;;;;5045836;28;20243;-76
2022/09/24 07:15:55;;;;;;;2.85;2.55;;;14.50;99.90;;;;;;5047398;28;20215;-76
2022/09/24 07:18:23;;;;;;;2.72;2.53;;;14.50;99.90;;;;;;5025234;28;20215;-76
2022/09/24 07:20:54;;;;;;;3.58;3.20;;;14.50;99.90;;;;;;5046270;28;20214;-75
2022/09/24 07:23:24;;;;;;;3.53;3.22;;;14.60;99.90;;;;;;5042871;28;20749;-75
2022/09/24 07:25:55;;;;;;;3.13;2.92;;;14.70;99.90;;;;;;5054556;28;20220;-76
2022/09/24 07:28:22;;;;;;;3.10;2.80;;;14.80;99.90;;;;;;5047184;28;20219;-76
2022/09/24 07:30:57;;;;;;;3.40;3.10;;;15.00;99.90;;;;;;5044348;28;20199;-76
2022/09/24 07:33:24;;;;;;;5.30;3.30;;;15.10;99.90;;;;;;5051177;28;20297;-76
2022/09/24 07:35:52;;;;;;;5.45;3.60;;;15.10;99.90;;;;;;5050162;28;20222;-76
2022/09/24 07:38:19;;;;;;;3.90;3.10;;;15.20;99.90;;;;;;5046786;28;20716;-76
2022/09/24 07:40:48;;;;;;;3.50;3.22;;;15.30;99.90;;;;;;5047238;28;20206;-75
2022/09/24 07:43:15;;;;;;;3.55;3.25;;;15.30;99.90;;;;;;5046137;28;20223;-77
2022/09/24 07:45:44;;;;;;;3.00;2.80;;;15.30;99.90;;;;;;5045296;28;20711;-75
2022/09/24 07:48:12;;;;;;;3.17;2.97;;;15.30;99.90;;;;;;5030818;28;20219;-77
2022/09/24 07:50:41;;;;;;;3.65;3.35;;;15.40;99.90;;;;;;5047362;28;20191;-76
2022/09/24 07:53:10;;;;;;;3.55;3.25;;;15.40;99.90;;;;;;5043603;28;20277;-75
2022/09/24 07:55:39;;;;;;;3.28;3.05;;;15.40;99.90;;;;;;5042728;28;20300;-75
2022/09/24 07:58:11;;;;;;;3.75;3.45;;;15.40;99.90;;;;;;5046871;28;20215;-75
2022/09/24 08:00:38;;;;;;;3.33;3.03;;;15.30;99.90;;;;;;5044186;28;20206;-74
2022/09/24 08:03:07;;;;;;;3.67;3.40;;;15.30;99.90;;;;;;5044939;28;20273;-76
2022/09/24 08:05:34;;;;;;;3.63;3.22;;;15.30;99.90;;;;;;5047381;28;20295;-75
2022/09/24 08:08:02;;;;;;;3.72;3.42;;;15.40;99.90;;;;;;5044561;28;20235;-75
2022/09/24 08:10:29;;;;;;;4.30;3.95;;;15.50;99.90;;;;;;5044104;28;20206;-73
2022/09/24 08:12:57;;;;;;;4.07;3.70;;;15.60;99.90;;;;;;5041831;28;20227;-75
2022/09/24 08:15:25;;;;;;;4.10;3.80;;;15.60;99.90;;;;;;5048803;28;20631;-77
2022/09/24 08:17:53;;;;;;;4.18;3.78;;;15.60;99.90;;;;;;5046215;28;20210;-75
2022/09/24 08:20:22;;;;;;;4.85;3.97;;;15.70;99.90;;;;;;5049615;28;20791;-76
2022/09/24 08:22:49;;;;;;;4.28;3.95;;;15.80;99.90;;;;;;5047687;28;20353;-74
2022/09/24 08:25:17;;;;;;;4.63;3.47;;;15.90;99.90;;;;;;5046269;28;20215;-75
2022/09/24 08:27:44;;;;;;;3.83;3.40;;;15.90;99.90;;;;;;5046715;28;20626;-76
2022/09/24 08:30:12;;;;;;;3.90;3.60;;;15.90;99.90;;;;;;5044548;28;21031;-76
2022/09/24 08:32:49;;;;;;;3.53;3.22;;;15.80;99.90;;;;;;5046305;28;20202;-77
2022/09/24 08:35:17;;;;;;;3.80;3.45;;;15.80;99.90;;;;;;5047234;28;20231;-78
2022/09/24 08:37:45;;;;;;;4.60;4.25;;;15.80;99.90;;;;;;5045008;28;20278;-79
2022/09/24 08:40:17;;;;;;;4.18;3.88;;;15.80;99.90;;;;;;5046745;28;20207;-77
2022/09/24 08:42:50;;;;;;;3.70;3.40;;;15.90;99.90;;;;;;5035232;28;20199;-77
2022/09/24 08:48:18;;;;;;;4.03;3.63;;;16.10;99.90;;;;;;5045209;28;20643;-75
2022/09/24 08:50:51;;;;;;;3.97;3.60;;;16.20;99.90;;;;;;5043676;28;20281;-76
2022/09/24 08:53:23;;;;;;;4.30;3.53;;;16.30;99.90;;;;;;5043411;28;20272;-76
2022/09/24 08:55:53;;;;;;;4.07;3.60;;;16.40;99.90;;;;;;5044864;28;20237;-76
2022/09/24 08:58:36;;;;;;;5.25;3.53;;;16.50;99.90;;;;;;5044481;28;20805;-76
2022/09/24 09:01:15;;;;;;;3.55;3.10;;;16.60;99.90;;;;;;5046218;28;20616;-76
2022/09/24 09:03:47;;;;;;;4.10;2.88;;;16.80;99.90;;;;;;5044159;28;20713;-75
2022/09/24 09:06:54;;;;;;;3.17;2.90;;;16.90;99.90;;;;;;5048092;28;20223;-74
2022/09/24 09:09:25;;;;;;;2.83;2.63;;;17.00;99.90;;;;;;5046729;28;20227;-75
2022/09/24 09:11:58;;;;;;;4.40;4.00;;;17.10;99.90;;;;;;5032860;28;20837;-75
2022/09/24 09:14:36;;;;;;;3.28;2.95;;;16.90;99.90;;;;;;5048728;28;20280;-76
2022/09/24 09:17:14;;;;;;;3.13;2.85;;;16.80;99.90;;;;;;5047606;28;20642;-77
2022/09/24 09:19:48;;;;;;;2.85;2.65;;;16.80;99.90;;;;;;5038870;28;20848;-73
2022/09/24 09:22:18;;;;;;;2.95;2.75;;;16.90;99.90;;;;;;5046399;28;20198;-73
2022/09/24 09:24:48;;;;;;;9.77;4.03;;;16.90;99.90;;;;;;5045257;28;20707;-74
2022/09/24 09:27:17;;;;;;;4.60;3.22;;;17.10;99.90;;;;;;5027330;28;20595;-74
2022/09/24 09:29:52;;;;;;;3.40;3.10;;;17.10;99.90;;;;;;5046367;28;20219;-74
2022/09/24 09:32:31;;;;;;;3.35;3.05;;;17.30;99.90;;;;;;5045660;28;20307;-74
2022/09/24 09:35:07;;;;;;;3.13;2.90;;;17.50;99.90;;;;;;5047005;28;20237;-73
2022/09/24 09:37:43;;;;;;;4.18;3.38;;;17.60;99.90;;;;;;5042835;28;20198;-75
2022/09/24 09:40:25;;;;;;;5.70;3.47;;;17.70;99.90;;;;;;5043831;28;20663;-73
2022/09/24 09:43:01;;;;;;;3.28;3.08;;;17.70;99.90;;;;;;5044789;28;20203;-73
2022/09/24 09:45:34;;;;;;;2.90;2.70;;;17.70;99.90;;;;;;5045805;28;20832;-72
2022/09/24 09:48:03;;;;;;;3.80;3.33;;;17.70;99.90;;;;;;5045681;28;20230;-73
2022/09/24 09:50:36;;;;;;;2.70;2.50;;;17.80;99.90;;;;;;5046247;28;20211;-73
2022/09/24 09:53:04;;;;;;;6.55;3.58;;;17.90;99.90;;;;;;5041204;28;20227;-73
2022/09/24 09:55:35;;;;;;;5.43;3.60;;;17.90;99.90;;;;;;5046202;28;20250;-72
2022/09/24 09:58:18;;;;;;;5.50;3.88;;;17.80;99.90;;;;;;5045121;28;20263;-74
2022/09/24 10:00:48;;;;;;;3.22;2.92;;;17.80;99.90;;;;;;5043040;28;20235;-72
2022/09/24 10:03:24;;;;;;;3.50;3.20;;;17.80;99.90;;;;;;5044434;28;20749;-73
2022/09/24 10:05:59;;;;;;;3.20;3.00;;;17.90;99.90;;;;;;5047886;28;20222;-73
2022/09/24 10:08:27;;;;;;;3.72;3.42;;;17.90;99.90;;;;;;5041419;28;20634;-73
2022/09/24 10:10:55;;;;;;;3.67;3.38;;;18.00;99.90;;;;;;5049250;28;20195;-74
2022/09/24 10:13:23;;;;;;;4.25;3.85;;;18.00;99.90;;;;;;5044811;28;20215;-73
2022/09/24 10:15:52;;;;;;;3.60;3.30;;;18.00;99.90;;;;;;5044783;28;20215;-72
2022/09/24 10:18:28;;;;;;;3.95;3.55;;;17.90;99.90;;;;;;5043038;28;20226;-75
2022/09/24 10:21:01;;;;;;;4.20;3.80;;;17.90;99.90;;;;;;5043030;28;20198;-74
2022/09/24 10:23:35;;;;;;;5.00;4.38;;;17.80;99.90;;;;;;5039876;28;20726;-72
2022/09/24 10:26:04;;;;;;;4.35;3.95;;;17.70;99.90;;;;;;5054559;28;20207;-74
2022/09/24 10:31:21;;;;;;;3.85;3.55;;;17.60;99.90;;;;;;5041476;28;20201;-73
2022/09/24 10:33:52;;;;;;;3.55;3.25;;;17.50;99.90;;;;;;5043051;28;20219;-74
2022/09/24 10:36:23;;;;;;;3.80;3.50;;;17.50;99.90;;;;;;5041121;28;20195;-74
2022/09/24 10:39:03;;;;;;;3.20;2.90;;;17.60;99.90;;;;;;5044864;28;20214;-74
2022/09/24 10:41:33;;;;;;;3.83;3.40;;;17.60;99.90;;;;;;5040154;28;20202;-74
2022/09/24 10:44:05;;;;;;;3.22;2.92;;;17.60;99.90;;;;;;5043088;28;20223;-74
2022/09/24 10:46:58;;;;;;;3.60;3.35;;;17.60;99.90;;;;;;5041200;28;20253;-74
2022/09/24 10:49:45;;;;;;;3.50;3.20;;;17.60;99.90;;;;;;5041258;28;20219;-75
2022/09/24 10:52:37;;;;;;;3.20;2.90;;;17.60;99.90;;;;;;5047733;28;20202;-75
2022/09/24 10:55:15;;;;;;;2.65;2.45;;;17.70;99.90;;;;;;5041272;28;20227;-74
2022/09/24 10:57:52;;;;;;;3.10;2.90;;;17.70;99.90;;;;;;5038313;28;20190;-74
2022/09/24 11:00:22;;;;;;;3.90;3.03;;;17.70;99.90;;;;;;5039809;28;20531;-74
2022/09/24 11:03:18;;;;;;;2.83;2.63;;;17.60;99.90;;;;;;5038837;28;20202;-74
2022/09/24 11:05:54;;;;;;;3.10;2.80;;;17.60;99.90;;;;;;5038817;28;20223;-74
2022/09/24 11:08:36;;;;;;;2.67;2.47;;;17.50;99.90;;;;;;5044140;28;20240;-74
2022/09/24 11:11:17;;;;;;;2.78;2.53;;;17.60;99.90;;;;;;5044084;28;20214;-74
2022/09/24 11:13:55;;;;;;;3.25;2.95;;;17.70;99.90;;;;;;5040608;28;20222;-74
2022/09/24 11:16:49;;;;;;;2.95;2.75;;;17.70;99.90;;;;;;5047965;28;20666;-74
2022/09/24 11:19:32;;;;;;;3.17;2.88;;;17.70;99.90;;;;;;5040947;28;20230;-74
2022/09/24 11:22:11;;;;;;;2.80;2.60;;;17.80;99.90;;;;;;5047528;28;20694;-74
2022/09/24 11:25:07;;;;;;;2.95;2.53;;;17.90;99.90;;;;;;5057255;22;20223;-73
2022/09/24 11:28:00;;;;;;;2.35;2.17;;;17.90;99.90;;;;;;5036422;28;20216;-73
2022/09/24 11:30:34;;;;;;;3.55;3.00;;;17.90;99.90;;;;;;5043303;28;20636;-73
2022/09/24 11:33:15;;;;;;;2.90;2.70;;;17.90;99.90;;;;;;5040480;28;20227;-73
2022/09/24 11:36:20;;;;;;;2.65;2.45;;;17.90;99.90;;;;;;5039637;28;20226;-73
2022/09/24 11:39:07;;;;;;;3.00;2.80;;;17.90;99.90;;;;;;5039484;28;20219;-74
2022/09/24 11:41:48;;;;;;;3.00;2.15;;;17.90;99.90;;;;;;5065076;28;20194;-73
2022/09/24 11:44:42;;;;;;;3.60;3.30;;;18.00;99.90;;;;;;5043932;28;20223;-73
2022/09/24 11:47:25;;;;;;;4.07;3.78;;;17.90;99.90;;;;;;5015848;28;20202;-73
2022/09/24 11:50:15;;;;;;;2.78;2.58;;;17.70;99.90;;;;;;5042450;28;20215;-73
2022/09/24 11:52:48;;;;;;;3.08;2.88;;;17.60;99.90;;;;;;5047876;28;20262;-73
2022/09/24 11:55:20;;;;;;;4.22;2.97;;;17.50;99.90;;;;;;5038731;28;20227;-73
2022/09/24 11:57:54;;;;;;;3.00;2.80;;;17.50;99.90;;;;;;5041285;28;20191;-73
2022/09/24 12:00:23;;;;;;;4.10;3.53;;;17.30;99.90;;;;;;5044534;28;20785;-73
2022/09/24 12:02:52;;;;;;;3.88;3.65;;;17.20;99.90;;;;;;5045106;28;20745;-73
2022/09/24 12:05:28;;;;;;;3.50;3.30;;;17.00;99.90;;;;;;5047717;28;20302;-73
2022/09/24 12:08:01;;;;;;;4.15;3.85;;;16.90;99.90;;;;;;5044435;28;20415;-73
2022/09/24 12:10:35;;;;;;;5.35;4.90;;;16.70;99.90;;;;;;5045027;28;20293;-74
2022/09/24 12:13:17;;;;;;;3.90;3.60;;;16.60;99.90;;;;;;5042311;28;20605;-75
2022/09/24 12:15:50;;;;;;;4.30;3.90;;;16.50;99.90;;;;;;5048190;28;20735;-76
2022/09/24 12:18:22;;;;;;;5.80;4.75;;;16.40;99.90;;;;;;5042216;28;20218;-77
2022/09/24 12:20:54;;;;;;;6.13;4.85;;;16.40;99.90;;;;;;5044354;28;20257;-77
2022/09/24 12:23:28;;;;;;;5.78;5.07;;;16.40;99.90;;;;;;5045177;28;20280;-75
2022/09/24 12:25:57;;;;;;;7.93;6.35;;;16.30;99.90;;;;;;5046996;28;20231;-77
2022/09/24 12:34:22;;;;;;;6.65;6.05;;;16.10;99.90;;;;;;5044375;28;20256;-76
2022/09/24 12:37:01;;;;;;;7.63;6.07;;;16.00;99.90;;;;;;5046025;28;20733;-77
2022/09/24 12:39:35;;;;;;;5.03;4.63;;;16.00;99.90;;;;;;5045759;28;20228;-78
2022/09/24 12:42:06;;;;;;;5.65;5.10;;;16.00;99.90;;;;;;5047606;28;20194;-82
2022/09/24 12:44:43;;;;;;;4.75;4.35;;;16.00;99.90;;;;;;5046364;28;20230;-78
2022/09/24 12:47:22;;;;;;;6.63;6.07;;;16.00;99.90;;;;;;5045393;28;20206;-76
2022/09/24 12:49:53;;;;;;;6.82;4.85;;;16.10;99.90;;;;;;5035005;28;20230;-76
2022/09/24 12:52:28;;;;;;;4.70;4.30;;;16.10;99.90;;;;;;5041572;28;20211;-75
2022/09/24 12:54:59;;;;;;;3.90;3.50;;;16.20;99.90;;;;;;5017662;28;20244;-73
2022/09/24 12:57:31;;;;;;;4.40;4.00;;;16.20;99.90;;;;;;5039069;28;20703;-74
2022/09/24 13:00:02;;;;;;;3.72;3.42;;;16.20;99.90;;;;;;5040767;28;20301;-74
2022/09/24 13:02:32;;;;;;;7.47;6.85;;;16.20;99.90;;;;;;5040989;28;20191;-75
2022/09/24 13:05:18;;;;;;;6.60;5.93;;;16.20;99.90;;;;;;5040687;28;20330;-75
2022/09/24 13:07:57;;;;;;;5.70;5.20;;;16.20;99.90;;;;;;5036745;28;20183;-76
2022/09/24 13:10:29;;;;;;;5.57;3.88;;;16.20;99.90;;;;;;5038253;28;20293;-73
2022/09/24 13:12:58;;;;;;;4.10;3.80;;;16.20;99.90;;;;;;5040482;28;20199;-75
2022/09/24 13:15:36;;;;;;;6.22;5.13;;;16.10;99.90;;;;;;5037103;28;20302;-76
2022/09/24 13:18:06;;;;;;;4.20;3.80;;;16.10;99.90;;;;;;5043611;28;20218;-76
2022/09/24 13:20:36;;;;;;;4.47;4.07;;;16.00;99.90;;;;;;5042984;28;20506;-74
2022/09/24 13:23:15;;;;;;;4.55;4.15;;;16.00;99.90;;;;;;5041456;28;20227;-77
2022/09/24 13:25:54;;;;;;;5.53;5.03;;;16.00;99.90;;;;;;5041936;28;20706;-77